createdAt,value
2022-10-11T00:02:21.634Z,100554.00
2022-10-11T00:08:46.031Z,100552.20
2022-10-11T00:15:10.364Z,100546.79
2022-10-11T00:21:43.497Z,100546.73
2022-10-11T00:28:07.973Z,100541.16
2022-10-11T00:34:32.354Z,100542.88
2022-10-11T00:40:56.724Z,100538.14
2022-10-11T00:47:21.537Z,100532.11
2022-10-11T00:53:45.820Z,100530.99
2022-10-11T01:00:10.583Z,100529.07
2022-10-11T01:06:35.240Z,100528.67
2022-10-11T01:12:59.618Z,100523.72
2022-10-11T01:19:28.430Z,100516.27
2022-10-11T01:26:02.088Z,100509.69
2022-10-11T01:32:39.178Z,100505.13
2022-10-11T01:39:12.289Z,100498.66
2022-10-11T01:45:36.565Z,100494.23
2022-10-11T01:52:00.794Z,100497.52
2022-10-11T01:58:34.125Z,100495.66
2022-10-11T02:05:04.392Z,100498.27
2022-10-11T02:11:34.521Z,100495.70
2022-10-11T02:17:58.829Z,100491.42
2022-10-11T02:24:28.922Z,100491.59
2022-10-11T02:30:53.170Z,100489.39
2022-10-11T02:37:17.471Z,100484.07
2022-10-11T02:43:44.337Z,100481.50
2022-10-11T02:50:08.525Z,100485.80
2022-10-11T02:56:32.862Z,100484.33
2022-10-11T03:02:57.064Z,100485.77
2022-10-11T03:09:21.387Z,100486.70
2022-10-11T03:15:45.818Z,100485.63
2022-10-11T03:22:10.090Z,100484.77
2022-10-11T03:28:34.376Z,100487.67
2022-10-11T03:34:58.747Z,100494.34
2022-10-11T03:41:23.036Z,100494.38
2022-10-11T03:47:48.361Z,100500.73
2022-10-11T03:54:12.729Z,100503.63
2022-10-11T04:00:37.020Z,100505.14
2022-10-11T04:07:01.322Z,100506.27
2022-10-11T04:13:26.061Z,100514.66
2022-10-11T04:19:50.324Z,100523.00
2022-10-11T04:26:14.522Z,100518.17
2022-10-11T04:32:38.769Z,100524.06
2022-10-11T04:39:03.091Z,100534.05
2022-10-11T04:45:27.422Z,100537.30
2022-10-11T04:51:51.724Z,100528.35
2022-10-11T04:58:15.919Z,100531.05
2022-10-11T05:04:40.206Z,100537.77
2022-10-11T05:11:04.639Z,100546.08
2022-10-11T05:17:28.954Z,100559.84
2022-10-11T05:23:53.259Z,100568.25
2022-10-11T05:30:17.455Z,100568.54
2022-10-11T05:36:41.778Z,100575.16
2022-10-11T05:43:06.062Z,100581.70
2022-10-11T05:49:30.296Z,100586.79
2022-10-11T05:55:54.614Z,100596.24
2022-10-11T06:02:18.914Z,100609.04
2022-10-11T06:08:42.012Z,100610.95
2022-10-11T06:15:06.308Z,100622.30
2022-10-11T06:21:30.652Z,100629.90
2022-10-11T06:27:54.905Z,100635.55
2022-10-11T06:34:19.232Z,100640.14
2022-10-11T06:40:43.666Z,100655.77
2022-10-11T06:47:07.956Z,100657.32
2022-10-11T06:53:32.237Z,100669.33
2022-10-11T06:59:56.442Z,100676.95
2022-10-11T07:06:20.650Z,100683.62
2022-10-11T07:12:44.991Z,100684.27
2022-10-11T07:19:09.235Z,100690.10
2022-10-11T07:25:33.522Z,100696.61
2022-10-11T07:31:57.820Z,100705.06
2022-10-11T07:38:22.466Z,100719.88
2022-10-11T07:44:46.787Z,100731.58
2022-10-11T07:51:11.060Z,100741.42
2022-10-11T07:57:35.378Z,100754.74
2022-10-11T08:03:59.553Z,100761.06
2022-10-11T08:10:23.805Z,100768.73
2022-10-11T08:16:50.759Z,100775.45
2022-10-11T08:23:15.104Z,100779.39
2022-10-11T08:29:39.370Z,100784.69
2022-10-11T08:36:04.037Z,100788.88
2022-10-11T08:42:28.739Z,100793.67
2022-10-11T08:48:55.709Z,100794.59
2022-10-11T08:55:27.815Z,100798.34
2022-10-11T09:02:03.005Z,100794.03
2022-10-11T09:08:39.162Z,100802.52
2022-10-11T09:15:31.354Z,100807.93
2022-10-11T09:21:58.824Z,100809.58
2022-10-11T09:28:35.057Z,100821.77
2022-10-11T09:34:59.301Z,100830.02
2022-10-11T09:41:23.612Z,100833.69
2022-10-11T09:47:47.941Z,100841.63
2022-10-11T09:54:10.655Z,100846.61
2022-10-11T10:00:33.755Z,100857.84
2022-10-11T10:07:03.525Z,100864.52
2022-10-11T10:13:30.659Z,100868.91
2022-10-11T10:20:00.943Z,100874.54
2022-10-11T10:26:30.946Z,100883.75
2022-10-11T10:32:55.139Z,100883.57
2022-10-11T10:39:28.339Z,100891.35
2022-10-11T10:45:55.514Z,100896.06
2022-10-11T10:52:29.124Z,100900.02
2022-10-11T10:59:11.469Z,100899.64
2022-10-11T11:05:41.317Z,100904.48
2022-10-11T11:12:26.921Z,100906.79
2022-10-11T11:18:51.231Z,100907.35
2022-10-11T11:25:21.353Z,100905.27
2022-10-11T11:32:13.053Z,100902.61
2022-10-11T11:38:37.349Z,100901.41
2022-10-11T11:45:10.662Z,100908.77
2022-10-11T11:51:34.966Z,100913.70
2022-10-11T11:58:14.138Z,100919.16
2022-10-11T12:04:39.260Z,100915.84
2022-10-11T12:11:35.332Z,100912.38
2022-10-11T12:18:09.061Z,100910.84
2022-10-11T12:24:36.110Z,100910.72
2022-10-11T12:30:51.743Z,100917.52
2022-10-11T12:37:22.022Z,100919.98
2022-10-11T12:43:55.315Z,100919.64
2022-10-11T12:50:25.452Z,100926.45
2022-10-11T12:56:52.559Z,100927.27
2022-10-11T13:03:32.886Z,100933.45
2022-10-11T13:10:12.286Z,100939.02
2022-10-11T13:16:36.695Z,100943.17
2022-10-11T13:23:01.015Z,100941.92
2022-10-11T13:28:57.923Z,100940.23
2022-10-11T13:35:24.647Z,100942.30
2022-10-11T13:41:49.280Z,100949.45
2022-10-11T13:48:16.657Z,100956.82
2022-10-11T13:54:40.972Z,100961.05
2022-10-11T14:01:20.869Z,100968.52
2022-10-11T14:07:45.345Z,100971.87
2022-10-11T14:14:21.647Z,100976.70
2022-10-11T14:20:45.962Z,100984.52
2022-10-11T14:27:15.795Z,100986.94
2022-10-11T14:33:40.078Z,100991.00
2022-10-11T14:40:04.367Z,100985.47
2022-10-11T14:46:28.639Z,100985.61
2022-10-11T14:52:53.243Z,100995.39
2022-10-11T14:59:47.118Z,100999.84
2022-10-11T15:06:11.479Z,101005.33
2022-10-11T15:12:35.865Z,101009.69
2022-10-11T15:19:00.105Z,101012.70
2022-10-11T15:25:24.377Z,101017.11
2022-10-11T15:31:48.897Z,101017.38
2022-10-11T15:38:14.223Z,101020.86
2022-10-11T15:44:38.616Z,101030.08
2022-10-11T15:51:03.028Z,101033.92
2022-10-11T15:57:27.509Z,101045.69
2022-10-11T16:03:52.082Z,101054.44
2022-10-11T16:10:16.320Z,101055.99
2022-10-11T16:16:43.389Z,101062.73
2022-10-11T16:23:07.739Z,101069.98
2022-10-11T16:29:31.993Z,101071.14
2022-10-11T16:35:56.172Z,101079.92
2022-10-11T16:42:20.469Z,101081.80
2022-10-11T16:48:44.704Z,101082.55
2022-10-11T16:55:09.045Z,101084.09
2022-10-11T17:01:33.570Z,101090.40
2022-10-11T17:07:57.817Z,101092.55
2022-10-11T17:14:22.005Z,101099.20
2022-10-11T17:20:46.381Z,101104.05
2022-10-11T17:27:10.670Z,101105.63
2022-10-11T17:33:34.986Z,101113.19
2022-10-11T17:39:59.289Z,101111.73
2022-10-11T17:46:23.634Z,101116.67
2022-10-11T17:52:47.908Z,101122.42
2022-10-11T17:59:12.239Z,101122.35
2022-10-11T18:05:36.567Z,101125.11
2022-10-11T18:12:00.832Z,101126.66
2022-10-11T18:18:25.054Z,101133.96
2022-10-11T18:24:49.386Z,101137.26
2022-10-11T18:31:14.348Z,101135.66
2022-10-11T18:37:39.034Z,101141.17
2022-10-11T18:44:03.326Z,101140.40
2022-10-11T18:50:27.649Z,101145.17
2022-10-11T18:56:51.897Z,101145.38
2022-10-11T19:03:16.277Z,101151.00
2022-10-11T19:09:40.606Z,101153.23
2022-10-11T19:16:05.367Z,101155.92
2022-10-11T19:22:29.924Z,101157.25
2022-10-11T19:28:54.277Z,101160.68
2022-10-11T19:35:20.017Z,101162.81
2022-10-11T19:41:44.533Z,101166.27
2022-10-11T19:48:08.517Z,101170.30
2022-10-11T19:54:35.268Z,101168.88
2022-10-11T20:00:59.842Z,101170.30
2022-10-11T20:07:24.030Z,101172.79
2022-10-11T20:13:47.950Z,101176.50
2022-10-11T20:20:12.289Z,101176.59
2022-10-11T20:26:42.359Z,101179.89
2022-10-11T20:33:06.732Z,101178.27
2022-10-11T20:39:31.092Z,101184.62
2022-10-11T20:45:55.357Z,101185.87
2022-10-11T20:52:19.641Z,101188.86
2022-10-11T20:58:44.000Z,101188.64
2022-10-11T21:05:08.317Z,101189.50
2022-10-11T21:11:32.818Z,101190.18
2022-10-11T21:17:57.214Z,101194.48
2022-10-11T21:24:21.513Z,101201.92
2022-10-11T21:30:45.873Z,101197.90
2022-10-11T21:37:10.161Z,101196.67
2022-10-11T21:43:34.478Z,101202.48
2022-10-11T21:49:58.791Z,101208.73
2022-10-11T21:56:23.070Z,101208.91
2022-10-11T22:02:47.409Z,101215.08
2022-10-11T22:09:11.718Z,101212.79
2022-10-11T22:15:35.998Z,101215.83
2022-10-11T22:21:53.397Z,101215.25
2022-10-11T22:28:17.749Z,101213.39
2022-10-11T22:34:42.096Z,101215.11
2022-10-11T22:41:06.491Z,101214.95
2022-10-11T22:47:30.834Z,101220.23
2022-10-11T22:53:55.245Z,101222.10
2022-10-11T23:00:19.530Z,101224.86
2022-10-11T23:06:43.757Z,101227.39
2022-10-11T23:13:08.153Z,101229.70
2022-10-11T23:19:32.389Z,101230.77
2022-10-11T23:25:56.709Z,101233.36
2022-10-11T23:32:21.005Z,101232.65
2022-10-11T23:38:45.310Z,101233.75
2022-10-11T23:45:05.813Z,101232.62
2022-10-11T23:51:30.145Z,101235.13
2022-10-11T23:57:54.408Z,101239.46
